Time;durP1;ratioP1;P1;durP2;ratioP2;P2;SDS_P1;SDS_P2;PMS_P1;PMS_P2;Temp;Humidity;BMP_temperature;BMP_pressure;BME280_temperature;BME280_humidity;BME280_pressure;Samples;Min_cycle;Max_cycle;Signal;HPM_P1;HPM_P2
2022/01/29 00:01:18;;;;;;;;;;;-1.20;81.40;;;;;;5021053;28;92907;-44
2022/01/29 00:03:44;;;;;;;;;;;-1.20;81.60;;;;;;5020856;28;94352;-44
2022/01/29 00:06:10;;;;;;;;;;;-1.20;81.60;;;;;;5021385;28;92218;-45
2022/01/29 00:08:35;;;;;;;;;;;-1.20;81.50;;;;;;5023757;28;93710;-45
2022/01/29 00:11:08;;;;;;;;;;;-1.20;81.30;;;;;;5020405;28;93060;-44
2022/01/29 00:13:34;;;;;;;;;;;-1.20;81.40;;;;;;5020980;28;94654;-44
2022/01/29 00:16:00;;;;;;;;;;;-1.20;81.10;;;;;;5020379;28;94544;-46
2022/01/29 00:18:26;;;;;;;;;;;-1.20;80.80;;;;;;5020129;28;92205;-45
2022/01/29 00:20:51;;;;;;;;;;;-1.20;80.70;;;;;;5020808;28;94069;-44
2022/01/29 00:23:17;;;;;;;;;;;-1.20;80.50;;;;;;5020460;28;94613;-45
2022/01/29 00:25:42;;;;;;;;;;;-1.20;80.40;;;;;;5021136;28;92210;-44
2022/01/29 00:28:08;;;;;;;;;;;-1.20;80.40;;;;;;5021327;28;93715;-45
2022/01/29 00:30:40;;;;;;;;;;;-1.20;80.90;;;;;;5023247;28;94388;-45
2022/01/29 00:33:05;;;;;;;;;;;-1.20;80.30;;;;;;5020646;28;93917;-44
2022/01/29 00:35:31;;;;;;;;;;;-1.20;80.30;;;;;;5019517;28;94676;-44
2022/01/29 00:37:56;;;;;;;;;;;-1.20;80.50;;;;;;5020714;28;92012;-44
2022/01/29 00:40:22;;;;;;;;;;;-1.20;80.50;;;;;;5020577;28;94198;-45
2022/01/29 00:42:48;;;;;;;;;;;-1.20;81.10;;;;;;5017092;28;96051;-45
2022/01/29 00:45:14;;;;;;;;;;;-1.20;80.60;;;;;;5019106;28;92107;-44
2022/01/29 00:47:40;;;;;;;;;;;-1.20;80.50;;;;;;5018726;28;93931;-45
2022/01/29 00:50:05;;;;;;;;;;;-1.20;80.40;;;;;;5018554;28;94657;-45
2022/01/29 00:52:31;;;;;;;;;;;-1.20;80.40;;;;;;5022575;28;91402;-44
2022/01/29 00:54:56;;;;;;;;;;;-1.20;80.30;;;;;;5018609;28;94723;-45
2022/01/29 00:57:23;;;;;;;;;;;-1.20;80.30;;;;;;5018906;28;92013;-44
2022/01/29 00:59:49;;;;;;;;;;;-1.20;80.40;;;;;;5018550;28;94383;-44
2022/01/29 01:02:14;;;;;;;;;;;-1.20;80.40;;;;;;5018202;28;94962;-45
2022/01/29 01:04:40;;;;;;;;;;;-1.20;80.50;;;;;;5018991;28;92144;-46
2022/01/29 01:07:09;;;;;;;;;;;-1.20;80.50;;;;;;5018822;28;94468;-45
2022/01/29 01:09:35;;;;;;;;;;;-1.20;80.50;;;;;;5018263;28;94679;-44
2022/01/29 01:12:01;;;;;;;;;;;-1.20;80.40;;;;;;5018749;28;92318;-45
2022/01/29 01:14:26;;;;;;;;;;;-1.20;80.30;;;;;;5021386;28;93720;-45
2022/01/29 01:16:52;;;;;;;;;;;-1.20;80.20;;;;;;5018949;28;91475;-45
2022/01/29 01:19:17;;;;;;;;;;;-1.20;80.30;;;;;;5018667;28;92852;-48
2022/01/29 01:21:43;;;;;;;;;;;-1.20;80.30;;;;;;5018161;28;95338;-45
2022/01/29 01:24:08;;;;;;;;;;;-1.20;80.30;;;;;;5017921;28;93101;-45
2022/01/29 01:26:34;;;;;;;;;;;-1.20;80.30;;;;;;5018550;28;95166;-44
2022/01/29 01:28:59;;;;;;;;;;;-1.20;80.40;;;;;;5017664;28;95290;-44
2022/01/29 01:31:25;;;;;;;;;;;-1.20;80.30;;;;;;5017778;28;92206;-44
2022/01/29 01:33:51;;;;;;;;;;;-1.20;80.40;;;;;;5018525;28;94333;-44
2022/01/29 01:36:20;;;;;;;;;;;-1.20;80.50;;;;;;5021235;28;94664;-46
2022/01/29 01:38:51;;;;;;;;;;;-1.20;80.50;;;;;;5018539;28;92716;-44
2022/01/29 01:41:22;;;;;;;;;;;-1.20;80.30;;;;;;4976353;28;1197261;-45
2022/01/29 01:43:48;;;;;;;;;;;-1.20;80.30;;;;;;5019764;28;92012;-46
2022/01/29 01:46:13;;;;;;;;;;;-1.20;80.30;;;;;;5019795;28;92484;-44
2022/01/29 01:48:39;;;;;;;;;;;-1.20;80.40;;;;;;5018368;28;95526;-44
2022/01/29 01:51:05;;;;;;;;;;;-1.20;80.50;;;;;;5019515;28;92012;-44
2022/01/29 01:53:31;;;;;;;;;;;-1.20;80.50;;;;;;5019663;28;93881;-44
2022/01/29 01:55:56;;;;;;;;;;;-1.20;81.10;;;;;;5019054;28;94381;-44
2022/01/29 01:58:22;;;;;;;;;;;-1.20;80.60;;;;;;5022578;28;92219;-44
2022/01/29 02:00:47;;;;;;;;;;;-1.20;80.60;;;;;;5018753;28;94590;-45
2022/01/29 02:03:13;;;;;;;;;;;-1.20;80.50;;;;;;5018222;28;92132;-45
2022/01/29 02:05:38;;;;;;;;;;;-1.20;80.30;;;;;;5020033;28;93468;-44
2022/01/29 02:08:05;;;;;;;;;;;-1.20;80.30;;;;;;5018836;28;94750;-45
2022/01/29 02:10:30;;;;;;;;;;;-1.20;80.40;;;;;;5019557;28;91946;-44
2022/01/29 02:12:59;;;;;;;;;;;-1.20;80.30;;;;;;5018741;28;93591;-44
2022/01/29 02:15:25;;;;;;;;;;;-1.20;80.30;;;;;;5018738;28;93495;-44
2022/01/29 02:17:51;;;;;;;;;;;-1.20;80.20;;;;;;5022310;28;92256;-45
2022/01/29 02:20:24;;;;;;;;;;;-1.20;80.20;;;;;;5018763;28;94565;-44
2022/01/29 02:22:50;;;;;;;;;;;-1.20;80.30;;;;;;5019335;28;92213;-44
2022/01/29 02:25:28;;;;;;;;;;;-1.20;80.20;;;;;;5019298;28;93553;-44
2022/01/29 02:27:53;;;;;;;;;;;-1.20;80.20;;;;;;5018599;28;95006;-44
2022/01/29 02:30:19;;;;;;;;;;;-1.20;80.10;;;;;;5019761;28;91469;-44
2022/01/29 02:32:45;;;;;;;;;;;-1.20;80.10;;;;;;5019261;28;92939;-44
2022/01/29 02:35:10;;;;;;;;;;;-1.20;80.20;;;;;;5018500;28;94306;-44
2022/01/29 02:37:36;;;;;;;;;;;-1.20;80.20;;;;;;5018470;28;93150;-45
2022/01/29 02:40:03;;;;;;;;;;;-1.20;80.20;;;;;;5021553;28;94846;-44
2022/01/29 02:42:28;;;;;;;;;;;-1.20;80.20;;;;;;5020726;28;92118;-44
2022/01/29 02:44:54;;;;;;;;;;;-1.20;80.20;;;;;;5022485;28;94007;-44
2022/01/29 02:47:29;;;;;;;;;;;-1.20;80.20;;;;;;5021704;28;94515;-45
2022/01/29 02:49:55;;;;;;;;;;;-1.20;80.10;;;;;;5022675;28;91992;-44
2022/01/29 02:52:20;;;;;;;;;;;-1.20;80.20;;;;;;5022534;28;93215;-44
2022/01/29 02:54:46;;;;;;;;;;;-1.20;80.30;;;;;;5022228;28;93755;-44
2022/01/29 02:57:11;;;;;;;;;;;-1.20;80.30;;;;;;5021908;28;91967;-44
2022/01/29 02:59:37;;;;;;;;;;;-1.20;80.30;;;;;;5022149;28;93586;-44
2022/01/29 03:02:02;;;;;;;;;;;-1.20;80.30;;;;;;5023905;28;95714;-44
2022/01/29 03:04:28;;;;;;;;;;;-1.20;80.30;;;;;;5022030;28;95307;-44
2022/01/29 03:06:53;;;;;;;;;;;-1.20;80.20;;;;;;5021613;28;93396;-44
2022/01/29 03:09:19;;;;;;;;;;;-1.20;80.20;;;;;;5022099;28;92157;-44
2022/01/29 03:11:44;;;;;;;;;;;-1.20;80.10;;;;;;5021908;28;94378;-44
2022/01/29 03:14:10;;;;;;;;;;;-1.20;80.20;;;;;;5021407;28;94969;-45
2022/01/29 03:16:35;;;;;;;;;;;-1.20;80.30;;;;;;5020611;28;92330;-45
2022/01/29 03:19:01;;;;;;;;;;;-1.20;80.40;;;;;;5022576;28;93944;-44
2022/01/29 03:21:26;;;;;;;;;;;-1.20;80.20;;;;;;5021217;28;95155;-44
2022/01/29 03:23:52;;;;;;;;;;;-1.20;80.20;;;;;;5024854;28;92248;-44
2022/01/29 03:26:17;;;;;;;;;;;-1.20;80.20;;;;;;5020461;28;95508;-45
2022/01/29 03:28:43;;;;;;;;;;;-1.20;80.40;;;;;;5021617;28;92240;-44
2022/01/29 03:31:08;;;;;;;;;;;-1.20;80.40;;;;;;5021679;28;94082;-44
2022/01/29 03:33:34;;;;;;;;;;;-1.20;80.40;;;;;;5021281;28;94634;-46
2022/01/29 03:36:00;;;;;;;;;;;-1.20;80.40;;;;;;5021553;28;92069;-44
2022/01/29 03:38:44;;;;;;;;;;;-1.20;80.40;;;;;;5021656;28;94071;-45
2022/01/29 03:41:12;;;;;;;;;;;-1.20;80.40;;;;;;5020461;28;94362;-44
2022/01/29 03:43:44;;;;;;;;;;;-1.20;80.40;;;;;;5022214;28;91420;-44
2022/01/29 03:46:10;;;;;;;;;;;-1.20;80.40;;;;;;5024206;28;93459;-44
2022/01/29 03:48:35;;;;;;;;;;;-1.20;80.40;;;;;;5021458;28;92202;-44
2022/01/29 03:51:01;;;;;;;;;;;-1.20;80.40;;;;;;5020941;28;92988;-44
2022/01/29 03:53:26;;;;;;;;;;;-1.20;80.60;;;;;;5019672;28;94412;-44
2022/01/29 03:55:52;;;;;;;;;;;-1.20;80.50;;;;;;5021142;28;92226;-44
2022/01/29 03:58:17;;;;;;;;;;;-1.20;80.50;;;;;;5021298;28;93721;-44
2022/01/29 04:00:43;;;;;;;;;;;-1.30;80.70;;;;;;5020555;28;93516;-44
2022/01/29 04:03:08;;;;;;;;;;;-1.20;80.60;;;;;;5021520;28;92327;-44
2022/01/29 04:05:34;;;;;;;;;;;-1.20;80.60;;;;;;5021327;28;93714;-44
2022/01/29 04:08:00;;;;;;;;;;;-1.20;80.70;;;;;;5023987;28;93869;-45
2022/01/29 04:10:27;;;;;;;;;;;-1.20;80.50;;;;;;5021022;28;92948;-44
2022/01/29 04:12:53;;;;;;;;;;;-1.20;80.60;;;;;;5020544;28;94198;-44
2022/01/29 04:15:19;;;;;;;;;;;-1.30;80.60;;;;;;5020632;28;93074;-44
2022/01/29 04:17:45;;;;;;;;;;;-1.20;80.70;;;;;;5020939;28;94578;-44
2022/01/29 04:20:10;;;;;;;;;;;-1.30;80.60;;;;;;5020264;28;94632;-44
2022/01/29 04:22:36;;;;;;;;;;;-1.20;80.70;;;;;;5020824;28;92186;-46
2022/01/29 04:25:01;;;;;;;;;;;-1.30;80.70;;;;;;5020775;28;93805;-44
2022/01/29 04:27:36;;;;;;;;;;;-1.20;80.80;;;;;;5023398;28;94528;-44
2022/01/29 04:30:08;;;;;;;;;;;-1.20;80.70;;;;;;5020941;28;93704;-44
2022/01/29 04:32:57;;;;;;;;;;;-1.20;80.70;;;;;;5020937;28;94282;-44
2022/01/29 04:35:19;;;;;;;;;;;-1.20;80.70;;;;;;5020516;28;92226;-45
2022/01/29 04:37:46;;;;;;;;;;;-1.20;80.70;;;;;;5020626;28;94249;-45
2022/01/29 04:40:11;;;;;;;;;;;-1.20;80.60;;;;;;5019373;28;95714;-44
2022/01/29 04:42:37;;;;;;;;;;;-1.20;80.60;;;;;;5020252;28;92166;-45
2022/01/29 04:45:03;;;;;;;;;;;-1.30;80.70;;;;;;5020606;28;93754;-44
2022/01/29 04:47:28;;;;;;;;;;;-1.20;80.70;;;;;;5019896;28;94106;-44
2022/01/29 04:49:54;;;;;;;;;;;-1.20;80.70;;;;;;5023701;28;92207;-44
2022/01/29 04:52:19;;;;;;;;;;;-1.20;80.60;;;;;;5019633;28;94553;-44
2022/01/29 04:54:45;;;;;;;;;;;-1.20;80.80;;;;;;5019126;28;92259;-44
2022/01/29 04:57:10;;;;;;;;;;;-1.20;80.70;;;;;;5020995;28;94232;-44
2022/01/29 04:59:36;;;;;;;;;;;-1.20;80.70;;;;;;5019987;28;94555;-44
2022/01/29 05:02:01;;;;;;;;;;;-1.20;80.70;;;;;;5020276;28;92361;-44
2022/01/29 05:04:27;;;;;;;;;;;-1.20;80.70;;;;;;5019341;28;94422;-44
2022/01/29 05:06:52;;;;;;;;;;;-1.30;80.60;;;;;;5019493;28;95176;-44
2022/01/29 05:09:18;;;;;;;;;;;-1.20;80.70;;;;;;5020174;28;92152;-44
2022/01/29 05:11:47;;;;;;;;;;;-1.20;80.80;;;;;;5022929;28;92230;-44
2022/01/29 05:14:22;;;;;;;;;;;-1.20;80.80;;;;;;5019959;28;92172;-44
2022/01/29 05:27:48;;;;;;;;;;;-1.20;80.70;;;;;;5019707;28;92292;-44
2022/01/29 05:30:13;;;;;;;;;;;-1.20;80.70;;;;;;5019391;28;93106;-44
2022/01/29 05:32:39;;;;;;;;;;;-1.20;80.70;;;;;;5019993;28;94892;-44
2022/01/29 05:35:05;;;;;;;;;;;-1.20;80.80;;;;;;5022400;28;94824;-44
2022/01/29 05:37:30;;;;;;;;;;;-1.20;80.80;;;;;;5020007;28;94878;-45
2022/01/29 05:39:56;;;;;;;;;;;-1.20;80.90;;;;;;5018930;28;94281;-45
2022/01/29 05:42:21;;;;;;;;;;;-1.20;80.90;;;;;;5018967;28;92206;-44
2022/01/29 05:44:47;;;;;;;;;;;-1.20;80.80;;;;;;5020024;28;94050;-44
2022/01/29 05:47:12;;;;;;;;;;;-1.20;80.80;;;;;;5019853;28;92354;-44
2022/01/29 05:49:38;;;;;;;;;;;-1.20;80.80;;;;;;5019702;28;92197;-44
2022/01/29 05:52:03;;;;;;;;;;;-1.20;80.70;;;;;;5019873;28;91991;-46
2022/01/29 05:54:29;;;;;;;;;;;-1.20;80.90;;;;;;5018417;28;95587;-44
2022/01/29 05:56:56;;;;;;;;;;;-1.20;80.80;;;;;;5022479;28;92183;-44
2022/01/29 05:59:21;;;;;;;;;;;-1.20;80.80;;;;;;5019058;28;94232;-44
2022/01/29 06:01:47;;;;;;;;;;;-1.20;80.80;;;;;;5019326;28;92160;-44
2022/01/29 06:04:12;;;;;;;;;;;-1.20;80.80;;;;;;5019804;28;93867;-45
2022/01/29 06:06:38;;;;;;;;;;;-1.20;80.60;;;;;;5018966;28;94866;-44
2022/01/29 06:09:04;;;;;;;;;;;-1.20;80.70;;;;;;5019599;28;92302;-44
2022/01/29 06:11:33;;;;;;;;;;;-1.20;80.80;;;;;;5019850;28;94230;-44
2022/01/29 06:13:59;;;;;;;;;;;-1.20;80.80;;;;;;5018984;28;94592;-45
2022/01/29 06:16:25;;;;;;;;;;;-1.20;80.90;;;;;;5020139;28;92124;-45
2022/01/29 06:18:50;;;;;;;;;;;-1.20;81.00;;;;;;5024781;28;93760;-44
2022/01/29 06:21:16;;;;;;;;;;;-1.20;80.90;;;;;;5022610;28;92877;-44
2022/01/29 06:23:43;;;;;;;;;;;-1.20;80.90;;;;;;5022708;28;93770;-45
2022/01/29 06:26:09;;;;;;;;;;;-1.20;80.90;;;;;;5022000;28;94457;-45
2022/01/29 06:28:35;;;;;;;;;;;-1.20;81.00;;;;;;5022604;28;92132;-44
2022/01/29 06:31:01;;;;;;;;;;;-1.20;81.10;;;;;;5022975;28;93954;-44
2022/01/29 06:33:27;;;;;;;;;;;-1.20;81.00;;;;;;5022072;28;94300;-44
2022/01/29 06:35:53;;;;;;;;;;;-1.20;80.90;;;;;;5023094;28;92263;-44
2022/01/29 06:38:18;;;;;;;;;;;-1.20;80.90;;;;;;5025214;28;93050;-44
2022/01/29 06:40:44;;;;;;;;;;;-1.20;80.80;;;;;;5021861;28;92165;-45
2022/01/29 06:43:10;;;;;;;;;;;-1.20;80.80;;;;;;5022005;28;93957;-44
2022/01/29 06:45:37;;;;;;;;;;;-1.20;80.80;;;;;;5021870;28;94383;-44
2022/01/29 06:48:03;;;;;;;;;;;-1.20;80.80;;;;;;5022484;28;92114;-44
2022/01/29 06:50:28;;;;;;;;;;;-1.20;81.10;;;;;;5022517;28;95015;-45
2022/01/29 06:52:54;;;;;;;;;;;-1.20;80.80;;;;;;5021705;28;94348;-44
2022/01/29 06:55:19;;;;;;;;;;;-1.10;80.90;;;;;;5022234;28;92172;-45
2022/01/29 06:57:45;;;;;;;;;;;-1.10;80.80;;;;;;5021996;28;93844;-44
2022/01/29 07:00:11;;;;;;;;;;;-1.10;80.80;;;;;;5025364;28;93625;-44
2022/01/29 07:02:37;;;;;;;;;;;-1.10;80.70;;;;;;5022102;28;93947;-44
2022/01/29 07:05:07;;;;;;;;;;;-1.10;80.80;;;;;;5021595;28;94150;-43
2022/01/29 07:07:32;;;;;;;;;;;-1.10;80.80;;;;;;5021484;28;93094;-44
2022/01/29 07:09:58;;;;;;;;;;;-1.10;80.90;;;;;;5022184;28;94982;-44
2022/01/29 07:12:24;;;;;;;;;;;-1.10;81.50;;;;;;5021279;28;94395;-44
2022/01/29 07:14:50;;;;;;;;;;;-1.00;81.70;;;;;;5022015;28;92201;-43
2022/01/29 07:17:17;;;;;;;;;;;-1.00;81.80;;;;;;5022123;28;93502;-44
2022/01/29 07:19:46;;;;;;;;;;;-1.00;81.90;;;;;;5021399;28;94587;-43
2022/01/29 07:22:12;;;;;;;;;;;-1.00;81.60;;;;;;5024863;28;92141;-44
2022/01/29 07:24:37;;;;;;;;;;;-1.00;81.70;;;;;;5021882;28;93761;-43
2022/01/29 07:27:04;;;;;;;;;;;-1.00;81.80;;;;;;5021372;28;92194;-43
2022/01/29 07:29:29;;;;;;;;;;;-1.00;81.70;;;;;;5021999;28;94035;-43
2022/01/29 07:31:58;;;;;;;;;;;-1.00;81.80;;;;;;5020484;28;95527;-43
2022/01/29 07:34:24;;;;;;;;;;;-1.00;81.90;;;;;;5021764;28;92262;-44
2022/01/29 07:36:50;;;;;;;;;;;-1.00;81.80;;;;;;5021727;28;93992;-43
2022/01/29 07:39:16;;;;;;;;;;;-1.00;81.70;;;;;;5021083;28;94256;-43
2022/01/29 07:41:41;;;;;;;;;;;-1.00;81.70;;;;;;5020860;28;92347;-43
2022/01/29 07:44:07;;;;;;;;;;;-1.00;82.20;;;;;;5024408;28;94186;-43
2022/01/29 07:46:32;;;;;;;;;;;-1.00;81.60;;;;;;5021330;28;92210;-43
2022/01/29 07:48:58;;;;;;;;;;;-1.00;81.70;;;;;;5022287;28;92418;-43
2022/01/29 07:51:23;;;;;;;;;;;-1.00;81.70;;;;;;5020964;28;94392;-43
2022/01/29 07:53:49;;;;;;;;;;;-1.00;81.90;;;;;;5021481;28;91896;-44
2022/01/29 07:56:14;;;;;;;;;;;-1.00;81.80;;;;;;5020460;28;93214;-44
2022/01/29 07:58:40;;;;;;;;;;;-1.00;81.90;;;;;;5020630;28;94368;-44
2022/01/29 08:01:05;;;;;;;;;;;-1.00;81.90;;;;;;5021169;28;92166;-44
2022/01/29 08:03:31;;;;;;;;;;;-1.10;82.00;;;;;;5021247;28;92737;-44
2022/01/29 08:05:56;;;;;;;;;;;-1.00;82.20;;;;;;5023671;28;94822;-44
2022/01/29 08:08:22;;;;;;;;;;;-1.00;82.20;;;;;;5021287;28;93895;-44
2022/01/29 08:10:47;;;;;;;;;;;-1.00;82.10;;;;;;5020368;28;95062;-44
2022/01/29 08:13:13;;;;;;;;;;;-1.00;82.00;;;;;;5021698;28;91439;-44
2022/01/29 08:15:39;;;;;;;;;;;-1.00;82.00;;;;;;5021100;28;93365;-44
2022/01/29 08:18:05;;;;;;;;;;;-1.00;82.20;;;;;;5020574;28;93612;-46
2022/01/29 08:20:31;;;;;;;;;;;-1.00;82.00;;;;;;5020352;28;93172;-45
2022/01/29 08:22:56;;;;;;;;;;;-1.00;82.00;;;;;;5020921;28;95072;-44
2022/01/29 08:25:22;;;;;;;;;;;-1.00;82.10;;;;;;5020428;28;94739;-44
2022/01/29 08:27:47;;;;;;;;;;;-1.00;82.10;;;;;;5024085;28;92005;-44
2022/01/29 08:30:13;;;;;;;;;;;-1.00;82.20;;;;;;5020356;28;94568;-46
2022/01/29 08:32:42;;;;;;;;;;;-1.00;82.30;;;;;;5020831;28;91996;-44
2022/01/29 08:35:13;;;;;;;;;;;-1.00;82.30;;;;;;5020828;28;94025;-44
2022/01/29 08:37:38;;;;;;;;;;;-1.00;82.30;;;;;;5020674;28;93519;-45
2022/01/29 08:40:05;;;;;;;;;;;-1.00;82.40;;;;;;5019826;28;92149;-45
2022/01/29 08:42:30;;;;;;;;;;;-1.00;82.30;;;;;;5020193;28;94123;-45
2022/01/29 08:44:56;;;;;;;;;;;-1.00;82.30;;;;;;5019799;28;93201;-44
2022/01/29 08:47:22;;;;;;;;;;;-1.00;82.30;;;;;;5023812;28;92209;-44
2022/01/29 08:49:47;;;;;;;;;;;-1.00;82.40;;;;;;5019850;28;94781;-46
2022/01/29 08:52:13;;;;;;;;;;;-1.00;82.40;;;;;;5020818;28;92144;-44
2022/01/29 08:54:38;;;;;;;;;;;-1.00;82.30;;;;;;5020218;28;94040;-45
2022/01/29 08:57:04;;;;;;;;;;;-0.90;82.50;;;;;;5019957;28;93808;-44
2022/01/29 08:59:29;;;;;;;;;;;-1.00;82.40;;;;;;5020454;28;92179;-45
2022/01/29 09:01:55;;;;;;;;;;;-1.00;82.40;;;;;;5020661;28;94090;-44
2022/01/29 09:04:20;;;;;;;;;;;-0.90;82.50;;;;;;5019682;28;94256;-44
2022/01/29 09:06:46;;;;;;;;;;;-0.90;82.40;;;;;;5020371;28;92082;-45
2022/01/29 09:09:11;;;;;;;;;;;-0.90;82.40;;;;;;5022182;28;94137;-44
2022/01/29 09:11:37;;;;;;;;;;;-0.90;82.60;;;;;;5020151;28;92123;-44
2022/01/29 09:14:02;;;;;;;;;;;-0.90;82.50;;;;;;5020447;28;94074;-44
2022/01/29 09:16:28;;;;;;;;;;;-0.90;82.40;;;;;;5019710;28;94201;-44
2022/01/29 09:18:54;;;;;;;;;;;-0.90;82.30;;;;;;5052750;27;92089;-45
2022/01/29 09:21:19;;;;;;;;;;;-0.90;82.40;;;;;;5019959;28;92537;-44
2022/01/29 09:23:45;;;;;;;;;;;-0.80;82.40;;;;;;5019693;28;93622;-44
2022/01/29 09:26:10;;;;;;;;;;;-0.90;82.40;;;;;;5020298;28;91509;-43
2022/01/29 09:28:36;;;;;;;;;;;-0.80;82.40;;;;;;5020224;28;93490;-43
2022/01/29 09:31:01;;;;;;;;;;;-0.80;82.30;;;;;;5022563;28;94832;-44
2022/01/29 09:33:27;;;;;;;;;;;-0.80;82.50;;;;;;5019396;28;93917;-43
2022/01/29 09:35:52;;;;;;;;;;;-0.80;82.20;;;;;;5019305;28;94813;-44
2022/01/29 09:38:18;;;;;;;;;;;-0.80;82.40;;;;;;5019673;28;92179;-43
2022/01/29 09:40:43;;;;;;;;;;;-0.80;82.50;;;;;;5019086;28;94091;-43
2022/01/29 09:43:10;;;;;;;;;;;-0.80;82.50;;;;;;5019324;28;94678;-43
2022/01/29 09:45:37;;;;;;;;;;;-0.80;82.40;;;;;;5019809;28;92124;-44
2022/01/29 09:48:03;;;;;;;;;;;-0.80;82.40;;;;;;5019878;28;94018;-44
2022/01/29 09:50:30;;;;;;;;;;;-0.80;82.50;;;;;;5019745;28;93988;-44
2022/01/29 09:52:56;;;;;;;;;;;-0.80;82.40;;;;;;5026014;28;92160;-44
2022/01/29 09:55:22;;;;;;;;;;;-0.70;82.50;;;;;;5022552;28;94387;-43
2022/01/29 09:57:47;;;;;;;;;;;-0.80;82.50;;;;;;5022623;28;92932;-43
2022/01/29 10:00:13;;;;;;;;;;;-0.70;82.20;;;;;;5023425;28;92586;-43
2022/01/29 10:02:39;;;;;;;;;;;-0.70;82.50;;;;;;5022548;28;94238;-43
2022/01/29 10:05:05;;;;;;;;;;;-0.70;82.50;;;;;;5023324;28;91872;-44
2022/01/29 10:07:32;;;;;;;;;;;-0.70;82.30;;;;;;5022936;28;92736;-44
2022/01/29 10:09:58;;;;;;;;;;;-0.70;82.50;;;;;;5022310;28;94674;-44
2022/01/29 10:12:30;;;;;;;;;;;-0.70;82.40;;;;;;5023009;28;92182;-43
2022/01/29 10:15:00;;;;;;;;;;;-0.70;82.40;;;;;;5026107;28;94085;-44
2022/01/29 10:17:44;;;;;;;;;;;-0.70;82.40;;;;;;5022843;28;92247;-43
2022/01/29 10:20:15;;;;;;;;;;;-0.70;82.40;;;;;;5023318;28;92314;-44
2022/01/29 10:22:40;;;;;;;;;;;-0.60;82.30;;;;;;5021388;28;96025;-45
2022/01/29 10:25:09;;;;;;;;;;;-0.60;82.50;;;;;;5022886;28;92170;-44
2022/01/29 10:27:35;;;;;;;;;;;-0.60;82.40;;;;;;5022847;28;93822;-44
2022/01/29 10:30:02;;;;;;;;;;;-0.60;82.30;;;;;;5022356;28;94650;-44
2022/01/29 10:32:28;;;;;;;;;;;-0.60;82.40;;;;;;5022617;28;91909;-44
2022/01/29 10:34:59;;;;;;;;;;;-0.60;82.00;;;;;;5025229;28;93509;-44
2022/01/29 10:37:25;;;;;;;;;;;-0.60;82.40;;;;;;5022748;28;92109;-44
2022/01/29 10:39:55;;;;;;;;;;;-0.60;82.40;;;;;;5022937;28;93924;-44
2022/01/29 10:42:21;;;;;;;;;;;-0.50;82.20;;;;;;5021647;28;93033;-44
2022/01/29 10:44:48;;;;;;;;;;;-0.60;82.10;;;;;;5022520;28;92169;-44
2022/01/29 10:47:14;;;;;;;;;;;-0.50;82.50;;;;;;5022008;28;92883;-45
2022/01/29 10:49:48;;;;;;;;;;;-0.50;82.20;;;;;;5021560;28;94230;-44
2022/01/29 10:52:14;;;;;;;;;;;-0.50;82.40;;;;;;5022519;28;91987;-44
2022/01/29 10:54:41;;;;;;;;;;;-0.50;82.10;;;;;;5022435;28;93999;-44
2022/01/29 10:57:17;;;;;;;;;;;-0.50;82.30;;;;;;5024896;28;94332;-44
2022/01/29 10:59:50;;;;;;;;;;;-0.50;82.60;;;;;;5022167;28;93833;-44
2022/01/29 11:02:16;;;;;;;;;;;-0.50;82.20;;;;;;5020836;28;94382;-44
2022/01/29 11:04:43;;;;;;;;;;;-0.50;82.10;;;;;;5022901;28;91431;-44
2022/01/29 11:07:19;;;;;;;;;;;-0.50;82.70;;;;;;5022127;28;93045;-43
2022/01/29 11:09:46;;;;;;;;;;;-0.50;82.50;;;;;;5021619;28;94369;-44
2022/01/29 11:12:12;;;;;;;;;;;-0.50;82.20;;;;;;5021226;28;93102;-45
2022/01/29 11:14:38;;;;;;;;;;;-0.50;82.10;;;;;;5021844;28;94655;-43
2022/01/29 11:17:04;;;;;;;;;;;-0.50;82.70;;;;;;5021296;28;94404;-44
2022/01/29 11:19:33;;;;;;;;;;;-0.50;82.80;;;;;;5024962;28;91891;-44
2022/01/29 11:22:01;;;;;;;;;;;-0.60;82.80;;;;;;5021261;28;94294;-44
2022/01/29 11:24:27;;;;;;;;;;;-0.50;82.80;;;;;;5021721;28;92150;-44
2022/01/29 11:26:53;;;;;;;;;;;-0.50;82.30;;;;;;5021601;28;93706;-44
2022/01/29 11:29:35;;;;;;;;;;;-0.60;82.70;;;;;;5021469;28;93421;-44
2022/01/29 11:32:19;;;;;;;;;;;-0.50;82.60;;;;;;5021640;28;92192;-44
2022/01/29 11:35:03;;;;;;;;;;;-0.50;83.30;;;;;;5021931;28;92382;-44
2022/01/29 11:37:37;;;;;;;;;;;-0.50;82.70;;;;;;5020445;28;95575;-44
2022/01/29 11:40:18;;;;;;;;;;;-0.50;82.80;;;;;;5021719;28;92090;-44
2022/01/29 11:43:06;;;;;;;;;;;-0.50;82.60;;;;;;5023633;28;93912;-44
2022/01/29 11:45:44;;;;;;;;;;;-0.50;82.50;;;;;;5021540;28;92177;-45
2022/01/29 11:48:13;;;;;;;;;;;-0.40;82.50;;;;;;5021291;28;93798;-43
2022/01/29 11:50:39;;;;;;;;;;;-0.50;82.70;;;;;;5020794;28;94581;-45
2022/01/29 11:53:04;;;;;;;;;;;-0.50;82.90;;;;;;5021709;28;92214;-45
2022/01/29 11:55:34;;;;;;;;;;;-0.50;82.90;;;;;;5021809;28;93807;-44
2022/01/29 11:58:15;;;;;;;;;;;-0.50;83.00;;;;;;5020802;28;94582;-44
2022/01/29 12:00:41;;;;;;;;;;;-0.50;82.90;;;;;;5021090;28;92217;-44
2022/01/29 12:03:07;;;;;;;;;;;-0.40;83.00;;;;;;5020432;28;94221;-45
2022/01/29 12:05:52;;;;;;;;;;;-0.50;83.30;;;;;;5023731;28;93972;-45
2022/01/29 12:08:19;;;;;;;;;;;-0.40;82.90;;;;;;5019863;28;96049;-44
2022/01/29 12:10:54;;;;;;;;;;;-0.40;83.00;;;;;;5020622;28;94743;-44
2022/01/29 12:13:20;;;;;;;;;;;-0.40;82.60;;;;;;5020828;28;92244;-44
2022/01/29 12:15:45;;;;;;;;;;;-0.40;82.80;;;;;;5020501;28;93829;-46
2022/01/29 12:18:24;;;;;;;;;;;-0.40;83.20;;;;;;5020440;28;94632;-46
2022/01/29 12:20:49;;;;;;;;;;;-0.40;82.90;;;;;;5021498;28;91527;-47
2022/01/29 12:23:15;;;;;;;;;;;-0.40;82.80;;;;;;5020953;28;93074;-44
2022/01/29 12:25:41;;;;;;;;;;;-0.40;82.90;;;;;;5020370;28;94647;-44
2022/01/29 12:28:07;;;;;;;;;;;-0.40;83.30;;;;;;5023012;28;93165;-44
2022/01/29 12:30:40;;;;;;;;;;;-0.40;83.40;;;;;;5020313;28;94383;-45
2022/01/29 12:33:10;;;;;;;;;;;-0.40;83.20;;;;;;5020669;28;92150;-44
2022/01/29 12:35:43;;;;;;;;;;;-0.40;83.10;;;;;;5020916;28;92946;-44
2022/01/29 12:38:13;;;;;;;;;;;-0.40;83.20;;;;;;5020463;28;92924;-44
2022/01/29 12:40:40;;;;;;;;;;;-0.30;83.30;;;;;;5020382;28;92092;-44
2022/01/29 12:43:24;;;;;;;;;;;-0.30;83.10;;;;;;5020799;28;93545;-44
2022/01/29 12:45:50;;;;;;;;;;;-0.30;82.70;;;;;;5020760;28;93753;-46
2022/01/29 12:48:16;;;;;;;;;;;-0.30;82.90;;;;;;5023786;28;92708;-47
2022/01/29 12:50:44;;;;;;;;;;;-0.30;82.90;;;;;;5019935;28;94599;-46
2022/01/29 12:53:15;;;;;;;;;;;-0.40;82.80;;;;;;5019763;28;93211;-46
2022/01/29 12:55:41;;;;;;;;;;;-0.30;83.30;;;;;;5020358;28;94899;-44
2022/01/29 12:58:07;;;;;;;;;;;-0.30;82.90;;;;;;5019848;28;94358;-44
2022/01/29 13:00:33;;;;;;;;;;;-0.30;83.10;;;;;;5020360;28;92189;-44
2022/01/29 13:03:02;;;;;;;;;;;-0.20;82.70;;;;;;5020209;28;94383;-44
2022/01/29 13:05:28;;;;;;;;;;;-0.20;82.80;;;;;;5019787;28;94493;-44
2022/01/29 13:07:53;;;;;;;;;;;-0.20;82.50;;;;;;5020160;28;92170;-46
2022/01/29 13:10:19;;;;;;;;;;;-0.30;82.90;;;;;;5023267;28;94210;-46
2022/01/29 13:12:45;;;;;;;;;;;-0.30;82.90;;;;;;5020189;28;92249;-44
2022/01/29 13:15:12;;;;;;;;;;;-0.30;83.00;;;;;;5020234;28;94077;-45
2022/01/29 13:17:42;;;;;;;;;;;-0.30;83.00;;;;;;5018978;28;95305;-46
2022/01/29 13:20:12;;;;;;;;;;;-0.20;83.00;;;;;;5020135;28;92034;-44
2022/01/29 13:22:42;;;;;;;;;;;-0.20;83.10;;;;;;5020109;28;93982;-45
2022/01/29 13:25:08;;;;;;;;;;;-0.20;82.90;;;;;;5019327;28;94500;-44
2022/01/29 13:27:37;;;;;;;;;;;-0.20;83.30;;;;;;5020009;28;92151;-44
2022/01/29 13:30:18;;;;;;;;;;;-0.10;83.20;;;;;;5020122;28;92845;-44
2022/01/29 13:32:46;;;;;;;;;;;-0.10;83.10;;;;;;5022409;28;94648;-44
2022/01/29 13:35:25;;;;;;;;;;;-0.10;82.90;;;;;;5020514;28;93742;-44
2022/01/29 13:37:55;;;;;;;;;;;-0.10;83.20;;;;;;5019386;28;94444;-44
2022/01/29 13:40:32;;;;;;;;;;;-0.10;83.10;;;;;;5020086;28;92043;-44
2022/01/29 13:42:59;;;;;;;;;;;-0.10;82.80;;;;;;5019225;28;92969;-45
2022/01/29 13:45:24;;;;;;;;;;;-0.10;83.00;;;;;;5018999;28;94496;-44
2022/01/29 13:48:01;;;;;;;;;;;-0.10;82.80;;;;;;5019665;28;92100;-44
2022/01/29 13:50:28;;;;;;;;;;;-0.10;82.80;;;;;;5019990;28;92768;-44
2022/01/29 13:53:16;;;;;;;;;;;0.00;82.80;;;;;;5019249;28;94452;-45
2022/01/29 13:55:54;;;;;;;;;;;-0.10;82.80;;;;;;5024595;27;92272;-44
2022/01/29 13:58:20;;;;;;;;;;;-0.10;82.70;;;;;;5019059;28;94413;-44
2022/01/29 14:00:51;;;;;;;;;;;-0.10;82.50;;;;;;5020027;28;91438;-44
2022/01/29 14:03:18;;;;;;;;;;;-0.10;82.90;;;;;;5019656;28;92657;-44
2022/01/29 14:05:44;;;;;;;;;;;0.00;82.80;;;;;;5019142;28;94930;-44
2022/01/29 14:08:21;;;;;;;;;;;0.00;82.90;;;;;;5018851;28;93137;-47
2022/01/29 14:10:56;;;;;;;;;;;0.00;82.90;;;;;;5019870;28;95205;-45
2022/01/29 14:13:27;;;;;;;;;;;0.00;82.90;;;;;;5019201;28;94569;-44
2022/01/29 14:15:52;;;;;;;;;;;0.00;82.50;;;;;;5019528;28;91985;-43
2022/01/29 14:18:18;;;;;;;;;;;0.00;82.70;;;;;;5022319;28;92403;-44
2022/01/29 14:20:43;;;;;;;;;;;0.00;82.80;;;;;;5019350;28;92175;-44
2022/01/29 14:23:08;;;;;;;;;;;0.00;82.80;;;;;;5019319;28;94038;-44
2022/01/29 14:25:34;;;;;;;;;;;0.00;83.00;;;;;;5019396;28;93973;-44
2022/01/29 14:28:00;;;;;;;;;;;0.00;83.00;;;;;;5019253;28;92202;-44